sensor_id;sensor_type;location;lat;lon;timestamp;temperature;humidity
76139;DHT22;65138;50.946;7.074;2023-03-19T00:01:26;18.40;57.50
76139;DHT22;65138;50.946;7.074;2023-03-19T00:03:52;18.40;57.60
76139;DHT22;65138;50.946;7.074;2023-03-19T00:06:18;18.40;57.60
76139;DHT22;65138;50.946;7.074;2023-03-19T00:08:44;18.40;57.50
76139;DHT22;65138;50.946;7.074;2023-03-19T00:11:11;18.40;57.60
76139;DHT22;65138;50.946;7.074;2023-03-19T00:13:38;18.40;57.50
76139;DHT22;65138;50.946;7.074;2023-03-19T00:16:05;18.40;57.60
76139;DHT22;65138;50.946;7.074;2023-03-19T00:18:31;18.40;57.70
76139;DHT22;65138;50.946;7.074;2023-03-19T00:20:57;18.40;57.60
76139;DHT22;65138;50.946;7.074;2023-03-19T00:23:22;18.40;57.60
76139;DHT22;65138;50.946;7.074;2023-03-19T00:25:48;18.40;57.60
76139;DHT22;65138;50.946;7.074;2023-03-19T00:28:14;18.40;57.60
76139;DHT22;65138;50.946;7.074;2023-03-19T00:30:39;18.40;57.70
76139;DHT22;65138;50.946;7.074;2023-03-19T00:33:05;18.40;57.60
76139;DHT22;65138;50.946;7.074;2023-03-19T00:35:31;18.40;57.60
76139;DHT22;65138;50.946;7.074;2023-03-19T00:37:57;18.40;57.60
76139;DHT22;65138;50.946;7.074;2023-03-19T00:40:23;18.40;57.70
76139;DHT22;65138;50.946;7.074;2023-03-19T00:42:48;18.40;57.70
76139;DHT22;65138;50.946;7.074;2023-03-19T00:45:14;18.40;57.60
76139;DHT22;65138;50.946;7.074;2023-03-19T00:47:41;18.30;57.60
76139;DHT22;65138;50.946;7.074;2023-03-19T00:50:07;18.30;57.60
76139;DHT22;65138;50.946;7.074;2023-03-19T00:52:32;18.30;57.60
76139;DHT22;65138;50.946;7.074;2023-03-19T00:54:58;18.30;57.60
76139;DHT22;65138;50.946;7.074;2023-03-19T00:57:23;18.30;57.60
76139;DHT22;65138;50.946;7.074;2023-03-19T00:59:49;18.30;57.60
76139;DHT22;65138;50.946;7.074;2023-03-19T01:02:15;18.30;57.60
76139;DHT22;65138;50.946;7.074;2023-03-19T01:04:41;18.30;57.70
76139;DHT22;65138;50.946;7.074;2023-03-19T01:07:07;18.30;57.70
76139;DHT22;65138;50.946;7.074;2023-03-19T01:09:32;18.30;57.70
76139;DHT22;65138;50.946;7.074;2023-03-19T01:12:00;18.30;57.70
76139;DHT22;65138;50.946;7.074;2023-03-19T01:14:30;18.30;57.70
76139;DHT22;65138;50.946;7.074;2023-03-19T01:16:56;18.30;57.70
76139;DHT22;65138;50.946;7.074;2023-03-19T01:19:22;18.30;57.70
76139;DHT22;65138;50.946;7.074;2023-03-19T01:21:48;18.30;57.80
76139;DHT22;65138;50.946;7.074;2023-03-19T01:24:18;18.30;57.80
76139;DHT22;65138;50.946;7.074;2023-03-19T01:26:48;18.30;57.70
76139;DHT22;65138;50.946;7.074;2023-03-19T01:29:20;18.30;57.70
76139;DHT22;65138;50.946;7.074;2023-03-19T01:31:45;18.30;57.70
76139;DHT22;65138;50.946;7.074;2023-03-19T01:34:33;18.30;57.70
76139;DHT22;65138;50.946;7.074;2023-03-19T01:37:07;18.30;57.70
76139;DHT22;65138;50.946;7.074;2023-03-19T01:39:34;18.30;58.30
76139;DHT22;65138;50.946;7.074;2023-03-19T01:42:03;18.30;57.70
76139;DHT22;65138;50.946;7.074;2023-03-19T01:45:30;18.30;57.70
76139;DHT22;65138;50.946;7.074;2023-03-19T01:48:38;18.30;57.80
76139;DHT22;65138;50.946;7.074;2023-03-19T01:51:11;18.30;57.80
76139;DHT22;65138;50.946;7.074;2023-03-19T01:53:52;18.30;57.70
76139;DHT22;65138;50.946;7.074;2023-03-19T01:56:32;18.30;57.70
76139;DHT22;65138;50.946;7.074;2023-03-19T02:02:09;18.30;57.80
76139;DHT22;65138;50.946;7.074;2023-03-19T02:04:37;18.20;57.70
76139;DHT22;65138;50.946;7.074;2023-03-19T02:07:05;18.20;57.70
76139;DHT22;65138;50.946;7.074;2023-03-19T02:09:32;18.20;57.70
76139;DHT22;65138;50.946;7.074;2023-03-19T02:11:59;18.20;57.70
76139;DHT22;65138;50.946;7.074;2023-03-19T02:14:26;18.20;57.70
76139;DHT22;65138;50.946;7.074;2023-03-19T02:16:53;18.20;57.70
76139;DHT22;65138;50.946;7.074;2023-03-19T02:19:34;18.20;57.70
76139;DHT22;65138;50.946;7.074;2023-03-19T02:22:01;18.20;57.70
76139;DHT22;65138;50.946;7.074;2023-03-19T02:24:31;18.20;57.80
76139;DHT22;65138;50.946;7.074;2023-03-19T02:27:06;18.20;57.70
76139;DHT22;65138;50.946;7.074;2023-03-19T02:29:32;18.20;57.70
76139;DHT22;65138;50.946;7.074;2023-03-19T02:31:59;18.20;57.80
76139;DHT22;65138;50.946;7.074;2023-03-19T02:36:56;18.20;57.70
76139;DHT22;65138;50.946;7.074;2023-03-19T02:39:59;18.20;57.70
76139;DHT22;65138;50.946;7.074;2023-03-19T02:42:28;18.20;57.80
76139;DHT22;65138;50.946;7.074;2023-03-19T02:44:56;18.20;57.70
76139;DHT22;65138;50.946;7.074;2023-03-19T02:47:23;18.20;57.80
76139;DHT22;65138;50.946;7.074;2023-03-19T02:49:48;18.20;57.80
76139;DHT22;65138;50.946;7.074;2023-03-19T02:52:14;18.20;57.80
76139;DHT22;65138;50.946;7.074;2023-03-19T02:54:40;18.20;57.70
76139;DHT22;65138;50.946;7.074;2023-03-19T02:57:06;18.20;58.30
76139;DHT22;65138;50.946;7.074;2023-03-19T02:59:32;18.20;57.70
76139;DHT22;65138;50.946;7.074;2023-03-19T03:01:57;18.20;57.70
76139;DHT22;65138;50.946;7.074;2023-03-19T03:04:23;18.20;57.70
76139;DHT22;65138;50.946;7.074;2023-03-19T03:06:49;18.20;57.70
76139;DHT22;65138;50.946;7.074;2023-03-19T03:09:14;18.20;57.70
76139;DHT22;65138;50.946;7.074;2023-03-19T03:11:41;18.20;57.70
76139;DHT22;65138;50.946;7.074;2023-03-19T03:14:08;18.20;57.70
76139;DHT22;65138;50.946;7.074;2023-03-19T03:16:34;18.20;57.70
76139;DHT22;65138;50.946;7.074;2023-03-19T03:18:59;18.20;57.70
76139;DHT22;65138;50.946;7.074;2023-03-19T03:21:26;18.20;57.70
76139;DHT22;65138;50.946;7.074;2023-03-19T03:23:52;18.20;57.70
76139;DHT22;65138;50.946;7.074;2023-03-19T03:26:18;18.20;57.70
76139;DHT22;65138;50.946;7.074;2023-03-19T03:28:44;18.20;57.70
76139;DHT22;65138;50.946;7.074;2023-03-19T03:31:09;18.20;57.70
76139;DHT22;65138;50.946;7.074;2023-03-19T03:33:38;18.20;57.80
76139;DHT22;65138;50.946;7.074;2023-03-19T03:36:04;18.20;57.80
76139;DHT22;65138;50.946;7.074;2023-03-19T03:38:29;18.20;57.80
76139;DHT22;65138;50.946;7.074;2023-03-19T03:40:57;18.20;57.80
76139;DHT22;65138;50.946;7.074;2023-03-19T03:43:25;18.20;57.80
76139;DHT22;65138;50.946;7.074;2023-03-19T03:45:51;18.20;57.70
76139;DHT22;65138;50.946;7.074;2023-03-19T03:48:17;18.20;57.80
76139;DHT22;65138;50.946;7.074;2023-03-19T03:50:43;18.20;57.80
76139;DHT22;65138;50.946;7.074;2023-03-19T03:53:13;18.20;57.80
76139;DHT22;65138;50.946;7.074;2023-03-19T03:55:40;18.20;57.80
76139;DHT22;65138;50.946;7.074;2023-03-19T03:58:07;18.20;57.80
76139;DHT22;65138;50.946;7.074;2023-03-19T04:00:33;18.20;57.80
76139;DHT22;65138;50.946;7.074;2023-03-19T04:02:58;18.20;57.80
76139;DHT22;65138;50.946;7.074;2023-03-19T04:05:24;18.20;57.80
76139;DHT22;65138;50.946;7.074;2023-03-19T04:07:51;18.20;57.80
76139;DHT22;65138;50.946;7.074;2023-03-19T04:10:17;18.20;57.80
76139;DHT22;65138;50.946;7.074;2023-03-19T04:12:43;18.20;57.80
76139;DHT22;65138;50.946;7.074;2023-03-19T04:15:10;18.20;57.80
76139;DHT22;65138;50.946;7.074;2023-03-19T04:17:38;18.20;57.80
76139;DHT22;65138;50.946;7.074;2023-03-19T04:20:05;18.20;57.80
76139;DHT22;65138;50.946;7.074;2023-03-19T04:22:32;18.20;57.80
76139;DHT22;65138;50.946;7.074;2023-03-19T04:24:58;18.20;57.80
76139;DHT22;65138;50.946;7.074;2023-03-19T04:27:25;18.20;57.80
76139;DHT22;65138;50.946;7.074;2023-03-19T04:29:51;18.20;57.80
76139;DHT22;65138;50.946;7.074;2023-03-19T04:32:17;18.20;57.80
76139;DHT22;65138;50.946;7.074;2023-03-19T04:34:42;18.20;57.80
76139;DHT22;65138;50.946;7.074;2023-03-19T04:37:08;18.20;57.80
76139;DHT22;65138;50.946;7.074;2023-03-19T04:39:40;18.20;57.80
76139;DHT22;65138;50.946;7.074;2023-03-19T04:42:06;18.20;58.40
76139;DHT22;65138;50.946;7.074;2023-03-19T04:44:35;18.20;57.80
76139;DHT22;65138;50.946;7.074;2023-03-19T04:47:02;18.20;58.40
76139;DHT22;65138;50.946;7.074;2023-03-19T04:49:34;18.20;57.80
76139;DHT22;65138;50.946;7.074;2023-03-19T04:52:01;18.20;57.80
76139;DHT22;65138;50.946;7.074;2023-03-19T04:54:27;18.20;57.80
76139;DHT22;65138;50.946;7.074;2023-03-19T04:56:52;18.20;57.80
76139;DHT22;65138;50.946;7.074;2023-03-19T04:59:21;18.20;57.90
76139;DHT22;65138;50.946;7.074;2023-03-19T05:01:47;18.20;57.80
76139;DHT22;65138;50.946;7.074;2023-03-19T05:04:17;18.20;57.80
76139;DHT22;65138;50.946;7.074;2023-03-19T05:06:43;18.10;57.70
76139;DHT22;65138;50.946;7.074;2023-03-19T05:09:09;18.20;57.80
76139;DHT22;65138;50.946;7.074;2023-03-19T05:11:35;18.20;57.70
76139;DHT22;65138;50.946;7.074;2023-03-19T05:14:10;18.20;57.70
76139;DHT22;65138;50.946;7.074;2023-03-19T05:16:49;18.20;57.60
76139;DHT22;65138;50.946;7.074;2023-03-19T05:19:16;18.20;57.60
76139;DHT22;65138;50.946;7.074;2023-03-19T05:21:42;18.30;57.60
76139;DHT22;65138;50.946;7.074;2023-03-19T05:24:08;18.30;57.60
76139;DHT22;65138;50.946;7.074;2023-03-19T05:26:35;18.30;57.50
76139;DHT22;65138;50.946;7.074;2023-03-19T05:29:25;18.30;57.60
76139;DHT22;65138;50.946;7.074;2023-03-19T05:32:23;18.30;57.50
76139;DHT22;65138;50.946;7.074;2023-03-19T05:34:50;18.30;57.50
76139;DHT22;65138;50.946;7.074;2023-03-19T05:37:16;18.40;57.50
76139;DHT22;65138;50.946;7.074;2023-03-19T05:39:45;18.40;57.50
76139;DHT22;65138;50.946;7.074;2023-03-19T05:42:12;18.40;57.50
76139;DHT22;65138;50.946;7.074;2023-03-19T05:44:39;18.40;57.40
76139;DHT22;65138;50.946;7.074;2023-03-19T05:47:25;18.40;57.40
76139;DHT22;65138;50.946;7.074;2023-03-19T05:49:53;18.40;57.40
76139;DHT22;65138;50.946;7.074;2023-03-19T05:52:19;18.40;57.40
76139;DHT22;65138;50.946;7.074;2023-03-19T05:54:46;18.50;57.40
76139;DHT22;65138;50.946;7.074;2023-03-19T05:57:22;18.50;57.40
76139;DHT22;65138;50.946;7.074;2023-03-19T05:59:54;18.50;57.40
76139;DHT22;65138;50.946;7.074;2023-03-19T06:02:39;18.50;57.30
76139;DHT22;65138;50.946;7.074;2023-03-19T06:05:16;18.50;57.30
76139;DHT22;65138;50.946;7.074;2023-03-19T06:07:42;18.50;57.30
76139;DHT22;65138;50.946;7.074;2023-03-19T06:10:15;18.50;57.30
76139;DHT22;65138;50.946;7.074;2023-03-19T06:12:41;18.50;57.30
76139;DHT22;65138;50.946;7.074;2023-03-19T06:15:21;18.60;57.30
76139;DHT22;65138;50.946;7.074;2023-03-19T06:18:05;18.60;57.30
76139;DHT22;65138;50.946;7.074;2023-03-19T06:20:31;18.60;57.30
76139;DHT22;65138;50.946;7.074;2023-03-19T06:22:56;18.60;57.30
76139;DHT22;65138;50.946;7.074;2023-03-19T06:25:22;18.60;57.30
76139;DHT22;65138;50.946;7.074;2023-03-19T06:27:48;18.60;57.30
76139;DHT22;65138;50.946;7.074;2023-03-19T06:30:21;18.60;57.20
76139;DHT22;65138;50.946;7.074;2023-03-19T06:32:47;18.60;57.20
76139;DHT22;65138;50.946;7.074;2023-03-19T06:35:13;18.60;57.20
76139;DHT22;65138;50.946;7.074;2023-03-19T06:37:39;18.60;57.20
76139;DHT22;65138;50.946;7.074;2023-03-19T06:40:05;18.60;57.10
76139;DHT22;65138;50.946;7.074;2023-03-19T06:42:31;18.60;57.10
76139;DHT22;65138;50.946;7.074;2023-03-19T06:44:57;18.70;57.20
76139;DHT22;65138;50.946;7.074;2023-03-19T06:47:22;18.70;57.20
76139;DHT22;65138;50.946;7.074;2023-03-19T06:49:48;18.70;57.20
76139;DHT22;65138;50.946;7.074;2023-03-19T06:52:13;18.70;57.10
76139;DHT22;65138;50.946;7.074;2023-03-19T06:54:39;18.70;57.80
76139;DHT22;65138;50.946;7.074;2023-03-19T06:57:05;18.70;57.20
76139;DHT22;65138;50.946;7.074;2023-03-19T06:59:30;18.70;57.10
76139;DHT22;65138;50.946;7.074;2023-03-19T07:01:56;18.70;57.10
76139;DHT22;65138;50.946;7.074;2023-03-19T07:04:21;18.70;57.10
76139;DHT22;65138;50.946;7.074;2023-03-19T07:06:47;18.70;57.10
76139;DHT22;65138;50.946;7.074;2023-03-19T07:09:13;18.70;57.10
76139;DHT22;65138;50.946;7.074;2023-03-19T07:11:39;18.70;57.10
76139;DHT22;65138;50.946;7.074;2023-03-19T07:14:04;18.70;57.10
76139;DHT22;65138;50.946;7.074;2023-03-19T07:16:30;18.70;57.10
76139;DHT22;65138;50.946;7.074;2023-03-19T07:18:55;18.70;57.00
76139;DHT22;65138;50.946;7.074;2023-03-19T07:21:21;18.70;57.10
76139;DHT22;65138;50.946;7.074;2023-03-19T07:23:47;18.70;57.10
76139;DHT22;65138;50.946;7.074;2023-03-19T07:26:15;18.70;57.00
76139;DHT22;65138;50.946;7.074;2023-03-19T07:28:40;18.80;57.00
76139;DHT22;65138;50.946;7.074;2023-03-19T07:31:06;18.80;57.00
76139;DHT22;65138;50.946;7.074;2023-03-19T07:33:32;18.70;57.00
76139;DHT22;65138;50.946;7.074;2023-03-19T07:35:57;18.80;57.00
76139;DHT22;65138;50.946;7.074;2023-03-19T07:38:23;18.80;57.00
76139;DHT22;65138;50.946;7.074;2023-03-19T07:40:49;18.70;57.00
76139;DHT22;65138;50.946;7.074;2023-03-19T07:43:15;18.70;57.00
76139;DHT22;65138;50.946;7.074;2023-03-19T07:45:41;18.70;57.00
76139;DHT22;65138;50.946;7.074;2023-03-19T07:48:06;18.80;57.10
76139;DHT22;65138;50.946;7.074;2023-03-19T07:50:33;18.80;57.00
76139;DHT22;65138;50.946;7.074;2023-03-19T07:52:58;18.80;57.00
76139;DHT22;65138;50.946;7.074;2023-03-19T07:55:24;18.70;56.90
76139;DHT22;65138;50.946;7.074;2023-03-19T07:57:50;18.80;56.90
76139;DHT22;65138;50.946;7.074;2023-03-19T08:00:16;18.80;57.00
76139;DHT22;65138;50.946;7.074;2023-03-19T08:02:43;18.80;56.90
76139;DHT22;65138;50.946;7.074;2023-03-19T08:05:10;18.70;57.10
76139;DHT22;65138;50.946;7.074;2023-03-19T08:07:35;18.10;58.70
76139;DHT22;65138;50.946;7.074;2023-03-19T08:10:03;18.10;58.90
76139;DHT22;65138;50.946;7.074;2023-03-19T08:12:29;17.80;59.70
76139;DHT22;65138;50.946;7.074;2023-03-19T08:14:56;17.80;59.90
76139;DHT22;65138;50.946;7.074;2023-03-19T08:17:21;17.80;59.70
76139;DHT22;65138;50.946;7.074;2023-03-19T08:19:47;18.10;59.00
76139;DHT22;65138;50.946;7.074;2023-03-19T08:22:13;18.30;58.50
76139;DHT22;65138;50.946;7.074;2023-03-19T08:24:38;18.50;58.10
76139;DHT22;65138;50.946;7.074;2023-03-19T08:27:04;18.60;58.10
76139;DHT22;65138;50.946;7.074;2023-03-19T08:29:30;18.70;57.60
76139;DHT22;65138;50.946;7.074;2023-03-19T08:31:55;18.70;57.40
76139;DHT22;65138;50.946;7.074;2023-03-19T08:34:23;18.80;57.30
76139;DHT22;65138;50.946;7.074;2023-03-19T08:36:49;18.80;57.30
76139;DHT22;65138;50.946;7.074;2023-03-19T08:39:15;18.80;57.10
76139;DHT22;65138;50.946;7.074;2023-03-19T08:41:40;18.80;57.10
76139;DHT22;65138;50.946;7.074;2023-03-19T08:44:06;18.80;57.10
76139;DHT22;65138;50.946;7.074;2023-03-19T08:46:32;18.80;57.00
76139;DHT22;65138;50.946;7.074;2023-03-19T08:48:58;18.90;57.00
76139;DHT22;65138;50.946;7.074;2023-03-19T08:51:24;18.90;57.00
76139;DHT22;65138;50.946;7.074;2023-03-19T08:53:51;18.80;56.90
76139;DHT22;65138;50.946;7.074;2023-03-19T08:56:17;18.80;56.90
76139;DHT22;65138;50.946;7.074;2023-03-19T08:58:43;18.80;57.00
76139;DHT22;65138;50.946;7.074;2023-03-19T09:01:11;18.80;56.90
76139;DHT22;65138;50.946;7.074;2023-03-19T09:03:39;18.80;57.00
76139;DHT22;65138;50.946;7.074;2023-03-19T09:06:07;18.80;57.00
76139;DHT22;65138;50.946;7.074;2023-03-19T09:08:34;18.80;57.00
76139;DHT22;65138;50.946;7.074;2023-03-19T09:11:00;18.80;57.00
76139;DHT22;65138;50.946;7.074;2023-03-19T09:13:26;18.80;57.00
76139;DHT22;65138;50.946;7.074;2023-03-19T09:15:52;18.80;56.90
76139;DHT22;65138;50.946;7.074;2023-03-19T09:18:18;18.80;56.90
76139;DHT22;65138;50.946;7.074;2023-03-19T09:20:51;18.90;57.00
76139;DHT22;65138;50.946;7.074;2023-03-19T09:23:17;18.70;57.10
76139;DHT22;65138;50.946;7.074;2023-03-19T09:25:42;18.60;57.80
76139;DHT22;65138;50.946;7.074;2023-03-19T09:28:08;18.00;59.70
76139;DHT22;65138;50.946;7.074;2023-03-19T09:30:34;17.70;61.50
76139;DHT22;65138;50.946;7.074;2023-03-19T09:33:00;17.50;62.10
76139;DHT22;65138;50.946;7.074;2023-03-19T09:35:25;17.40;62.80
76139;DHT22;65138;50.946;7.074;2023-03-19T09:37:56;17.30;63.10
76139;DHT22;65138;50.946;7.074;2023-03-19T09:40:27;17.40;63.10
76139;DHT22;65138;50.946;7.074;2023-03-19T09:45:49;17.20;63.70
76139;DHT22;65138;50.946;7.074;2023-03-19T09:48:32;16.90;64.60
76139;DHT22;65138;50.946;7.074;2023-03-19T09:51:06;16.90;64.20
76139;DHT22;65138;50.946;7.074;2023-03-19T09:53:42;16.90;64.10
76139;DHT22;65138;50.946;7.074;2023-03-19T09:56:13;16.90;65.00
76139;DHT22;65138;50.946;7.074;2023-03-19T09:58:39;16.90;64.70
76139;DHT22;65138;50.946;7.074;2023-03-19T10:01:05;16.90;65.00
76139;DHT22;65138;50.946;7.074;2023-03-19T10:06:30;16.70;65.60
76139;DHT22;65138;50.946;7.074;2023-03-19T10:17:03;16.80;65.30
76139;DHT22;65138;50.946;7.074;2023-03-19T10:20:50;16.80;66.10
76139;DHT22;65138;50.946;7.074;2023-03-19T10:22:47;16.60;66.40
76139;DHT22;65138;50.946;7.074;2023-03-19T10:25:23;16.70;66.10
76139;DHT22;65138;50.946;7.074;2023-03-19T10:27:55;16.70;66.40
76139;DHT22;65138;50.946;7.074;2023-03-19T10:30:24;16.60;66.40
76139;DHT22;65138;50.946;7.074;2023-03-19T10:33:06;16.40;66.70
76139;DHT22;65138;50.946;7.074;2023-03-19T10:35:40;16.60;66.40
76139;DHT22;65138;50.946;7.074;2023-03-19T10:41:03;16.50;66.90
76139;DHT22;65138;50.946;7.074;2023-03-19T10:43:30;16.50;66.90
76139;DHT22;65138;50.946;7.074;2023-03-19T10:45:56;16.60;66.20
76139;DHT22;65138;50.946;7.074;2023-03-19T10:48:24;17.00;64.90
76139;DHT22;65138;50.946;7.074;2023-03-19T10:50:59;17.50;63.10
76139;DHT22;65138;50.946;7.074;2023-03-19T10:53:28;17.80;61.50
76139;DHT22;65138;50.946;7.074;2023-03-19T10:55:59;18.10;60.50
76139;DHT22;65138;50.946;7.074;2023-03-19T10:58:27;18.30;59.90
76139;DHT22;65138;50.946;7.074;2023-03-19T11:03:37;18.50;59.40
76139;DHT22;65138;50.946;7.074;2023-03-19T11:06:14;18.50;59.70
76139;DHT22;65138;50.946;7.074;2023-03-19T11:08:41;18.60;59.60
76139;DHT22;65138;50.946;7.074;2023-03-19T11:11:32;18.70;59.40
76139;DHT22;65138;50.946;7.074;2023-03-19T11:14:06;18.80;59.20
76139;DHT22;65138;50.946;7.074;2023-03-19T11:16:32;18.90;59.00
76139;DHT22;65138;50.946;7.074;2023-03-19T11:19:23;19.00;58.90
76139;DHT22;65138;50.946;7.074;2023-03-19T11:22:01;19.00;58.80
76139;DHT22;65138;50.946;7.074;2023-03-19T11:24:30;19.20;58.60
76139;DHT22;65138;50.946;7.074;2023-03-19T11:26:56;19.20;58.50
76139;DHT22;65138;50.946;7.074;2023-03-19T11:29:26;19.20;58.50
76139;DHT22;65138;50.946;7.074;2023-03-19T11:34:48;19.40;58.10
76139;DHT22;65138;50.946;7.074;2023-03-19T11:37:29;19.30;58.20
76139;DHT22;65138;50.946;7.074;2023-03-19T11:40:11;19.30;58.30
76139;DHT22;65138;50.946;7.074;2023-03-19T11:45:48;19.40;58.30
76139;DHT22;65138;50.946;7.074;2023-03-19T11:51:30;19.50;58.10
76139;DHT22;65138;50.946;7.074;2023-03-19T11:56:41;19.40;58.40
76139;DHT22;65138;50.946;7.074;2023-03-19T11:59:19;19.40;58.30
76139;DHT22;65138;50.946;7.074;2023-03-19T12:05:19;19.60;58.10
76139;DHT22;65138;50.946;7.074;2023-03-19T12:15:41;19.70;58.20
76139;DHT22;65138;50.946;7.074;2023-03-19T12:18:53;19.30;59.70
76139;DHT22;65138;50.946;7.074;2023-03-19T12:26:49;18.10;61.90
76139;DHT22;65138;50.946;7.074;2023-03-19T12:29:32;17.80;64.10
76139;DHT22;65138;50.946;7.074;2023-03-19T12:35:05;17.70;65.50
76139;DHT22;65138;50.946;7.074;2023-03-19T12:40:53;17.80;66.30
76139;DHT22;65138;50.946;7.074;2023-03-19T12:43:03;17.70;66.30
76139;DHT22;65138;50.946;7.074;2023-03-19T12:45:35;17.70;65.80
76139;DHT22;65138;50.946;7.074;2023-03-19T12:48:17;17.60;65.80
76139;DHT22;65138;50.946;7.074;2023-03-19T12:50:48;17.60;65.70
76139;DHT22;65138;50.946;7.074;2023-03-19T12:53:27;17.50;66.30
76139;DHT22;65138;50.946;7.074;2023-03-19T12:55:58;17.40;66.30
76139;DHT22;65138;50.946;7.074;2023-03-19T12:58:37;17.40;66.40
76139;DHT22;65138;50.946;7.074;2023-03-19T13:01:10;17.30;66.40
76139;DHT22;65138;50.946;7.074;2023-03-19T13:04:01;17.30;66.20
76139;DHT22;65138;50.946;7.074;2023-03-19T13:06:35;17.30;66.10
76139;DHT22;65138;50.946;7.074;2023-03-19T13:14:37;17.30;65.90
76139;DHT22;65138;50.946;7.074;2023-03-19T13:23:03;17.30;66.60
76139;DHT22;65138;50.946;7.074;2023-03-19T13:25:33;17.30;67.00
76139;DHT22;65138;50.946;7.074;2023-03-19T13:28:08;17.30;67.30
76139;DHT22;65138;50.946;7.074;2023-03-19T13:30:34;17.30;66.70
76139;DHT22;65138;50.946;7.074;2023-03-19T13:33:12;17.30;67.20
76139;DHT22;65138;50.946;7.074;2023-03-19T13:35:45;17.30;67.00
76139;DHT22;65138;50.946;7.074;2023-03-19T13:40:53;17.20;67.80
76139;DHT22;65138;50.946;7.074;2023-03-19T13:43:40;17.30;67.30
76139;DHT22;65138;50.946;7.074;2023-03-19T13:46:25;17.60;65.80
76139;DHT22;65138;50.946;7.074;2023-03-19T13:48:53;17.90;64.60
76139;DHT22;65138;50.946;7.074;2023-03-19T13:51:28;18.10;63.70
76139;DHT22;65138;50.946;7.074;2023-03-19T13:59:29;18.20;62.20
76139;DHT22;65138;50.946;7.074;2023-03-19T14:01:56;18.20;62.00
76139;DHT22;65138;50.946;7.074;2023-03-19T14:04:35;18.30;61.70
76139;DHT22;65138;50.946;7.074;2023-03-19T14:09:49;18.30;61.70
76139;DHT22;65138;50.946;7.074;2023-03-19T14:14:46;18.30;61.30
76139;DHT22;65138;50.946;7.074;2023-03-19T14:17:21;18.30;61.10
76139;DHT22;65138;50.946;7.074;2023-03-19T14:19:49;18.30;61.20
76139;DHT22;65138;50.946;7.074;2023-03-19T14:24:42;18.30;61.10
76139;DHT22;65138;50.946;7.074;2023-03-19T14:27:29;18.30;60.90
76139;DHT22;65138;50.946;7.074;2023-03-19T14:29:59;18.30;60.90
76139;DHT22;65138;50.946;7.074;2023-03-19T14:32:33;18.30;60.90
76139;DHT22;65138;50.946;7.074;2023-03-19T14:35:00;18.30;60.90
76139;DHT22;65138;50.946;7.074;2023-03-19T14:37:50;18.30;60.80
76139;DHT22;65138;50.946;7.074;2023-03-19T14:40:25;18.30;60.80
76139;DHT22;65138;50.946;7.074;2023-03-19T14:43:14;18.30;60.70
76139;DHT22;65138;50.946;7.074;2023-03-19T14:46:00;18.30;60.80
76139;DHT22;65138;50.946;7.074;2023-03-19T14:54:21;18.30;60.80
76139;DHT22;65138;50.946;7.074;2023-03-19T14:56:48;18.30;60.60
76139;DHT22;65138;50.946;7.074;2023-03-19T14:59:14;18.30;60.60
76139;DHT22;65138;50.946;7.074;2023-03-19T15:01:48;18.30;60.60
76139;DHT22;65138;50.946;7.074;2023-03-19T15:04:18;18.20;61.10
76139;DHT22;65138;50.946;7.074;2023-03-19T15:06:54;18.20;61.10
76139;DHT22;65138;50.946;7.074;2023-03-19T15:09:27;18.20;61.10
76139;DHT22;65138;50.946;7.074;2023-03-19T15:17:35;18.30;60.60
76139;DHT22;65138;50.946;7.074;2023-03-19T15:20:16;18.30;60.60
76139;DHT22;65138;50.946;7.074;2023-03-19T15:22:43;18.30;60.60
76139;DHT22;65138;50.946;7.074;2023-03-19T15:25:10;18.30;60.60
76139;DHT22;65138;50.946;7.074;2023-03-19T15:27:37;18.30;60.60
76139;DHT22;65138;50.946;7.074;2023-03-19T15:30:14;18.30;60.60
76139;DHT22;65138;50.946;7.074;2023-03-19T15:32:43;18.30;60.60
76139;DHT22;65138;50.946;7.074;2023-03-19T15:35:08;18.30;60.60
76139;DHT22;65138;50.946;7.074;2023-03-19T15:37:46;18.30;60.50
76139;DHT22;65138;50.946;7.074;2023-03-19T15:40:16;18.30;60.40
76139;DHT22;65138;50.946;7.074;2023-03-19T15:42:44;18.30;60.40
76139;DHT22;65138;50.946;7.074;2023-03-19T15:45:12;18.30;60.40
76139;DHT22;65138;50.946;7.074;2023-03-19T15:47:53;18.30;60.40
76139;DHT22;65138;50.946;7.074;2023-03-19T15:50:23;18.40;60.30
76139;DHT22;65138;50.946;7.074;2023-03-19T15:52:56;18.40;60.00
76139;DHT22;65138;50.946;7.074;2023-03-19T15:55:23;18.50;60.00
76139;DHT22;65138;50.946;7.074;2023-03-19T15:57:51;18.50;59.90
76139;DHT22;65138;50.946;7.074;2023-03-19T16:00:18;18.50;59.80
76139;DHT22;65138;50.946;7.074;2023-03-19T16:02:46;18.60;59.80
76139;DHT22;65138;50.946;7.074;2023-03-19T16:05:27;18.60;59.70
76139;DHT22;65138;50.946;7.074;2023-03-19T16:08:00;18.60;59.70
76139;DHT22;65138;50.946;7.074;2023-03-19T16:10:39;18.60;59.80
76139;DHT22;65138;50.946;7.074;2023-03-19T16:18:23;18.60;59.70
76139;DHT22;65138;50.946;7.074;2023-03-19T16:21:00;18.70;59.80
76139;DHT22;65138;50.946;7.074;2023-03-19T16:23:31;18.70;59.70
76139;DHT22;65138;50.946;7.074;2023-03-19T16:26:01;18.70;59.70
76139;DHT22;65138;50.946;7.074;2023-03-19T16:28:27;18.70;59.70
76139;DHT22;65138;50.946;7.074;2023-03-19T16:30:53;18.70;60.40
76139;DHT22;65138;50.946;7.074;2023-03-19T16:33:18;18.70;59.70
76139;DHT22;65138;50.946;7.074;2023-03-19T16:35:45;18.70;59.70
76139;DHT22;65138;50.946;7.074;2023-03-19T16:38:17;18.70;59.70
76139;DHT22;65138;50.946;7.074;2023-03-19T16:41:17;18.70;60.00
76139;DHT22;65138;50.946;7.074;2023-03-19T16:43:47;18.70;59.70
76139;DHT22;65138;50.946;7.074;2023-03-19T16:46:13;18.70;59.70
76139;DHT22;65138;50.946;7.074;2023-03-19T16:48:41;18.80;59.70
76139;DHT22;65138;50.946;7.074;2023-03-19T16:51:15;18.80;59.70
76139;DHT22;65138;50.946;7.074;2023-03-19T16:53:42;18.80;59.70
76139;DHT22;65138;50.946;7.074;2023-03-19T16:56:11;18.50;62.40
76139;DHT22;65138;50.946;7.074;2023-03-19T16:58:39;18.00;66.60
76139;DHT22;65138;50.946;7.074;2023-03-19T17:01:14;18.20;65.10
76139;DHT22;65138;50.946;7.074;2023-03-19T17:03:41;18.40;64.40
76139;DHT22;65138;50.946;7.074;2023-03-19T17:06:09;18.50;63.60
76139;DHT22;65138;50.946;7.074;2023-03-19T17:08:35;18.60;63.00
76139;DHT22;65138;50.946;7.074;2023-03-19T17:11:01;18.70;62.60
76139;DHT22;65138;50.946;7.074;2023-03-19T17:13:28;18.70;62.30
76139;DHT22;65138;50.946;7.074;2023-03-19T17:15:58;18.70;62.20
76139;DHT22;65138;50.946;7.074;2023-03-19T17:18:29;18.70;62.00
76139;DHT22;65138;50.946;7.074;2023-03-19T17:21:02;18.80;61.80
76139;DHT22;65138;50.946;7.074;2023-03-19T17:23:28;18.80;62.60
76139;DHT22;65138;50.946;7.074;2023-03-19T17:25:55;18.80;61.60
76139;DHT22;65138;50.946;7.074;2023-03-19T17:28:21;18.80;61.50
76139;DHT22;65138;50.946;7.074;2023-03-19T17:30:47;18.80;61.50